sensor_id;sensor_type;location;lat;lon;timestamp;P1;durP1;ratioP1;P2;durP2;ratioP2
20669;SDS011;10494;50.868;4.180;2023-04-25T00:00:10;23.70;;;5.60;;
20669;SDS011;10494;50.868;4.180;2023-04-25T00:02:36;19.43;;;4.83;;
20669;SDS011;10494;50.868;4.180;2023-04-25T00:05:02;17.73;;;4.90;;
20669;SDS011;10494;50.868;4.180;2023-04-25T00:07:28;17.70;;;5.28;;
20669;SDS011;10494;50.868;4.180;2023-04-25T00:09:54;19.23;;;5.40;;
20669;SDS011;10494;50.868;4.180;2023-04-25T00:12:19;22.25;;;5.30;;
20669;SDS011;10494;50.868;4.180;2023-04-25T00:14:46;17.03;;;5.00;;
20669;SDS011;10494;50.868;4.180;2023-04-25T00:17:14;16.17;;;4.77;;
20669;SDS011;10494;50.868;4.180;2023-04-25T00:19:41;15.68;;;4.78;;
20669;SDS011;10494;50.868;4.180;2023-04-25T00:22:09;23.73;;;5.30;;
20669;SDS011;10494;50.868;4.180;2023-04-25T00:24:35;21.43;;;5.10;;
20669;SDS011;10494;50.868;4.180;2023-04-25T00:27:01;17.83;;;4.57;;
20669;SDS011;10494;50.868;4.180;2023-04-25T00:29:27;21.87;;;5.07;;
20669;SDS011;10494;50.868;4.180;2023-04-25T00:31:52;21.40;;;5.60;;
20669;SDS011;10494;50.868;4.180;2023-04-25T00:34:18;17.73;;;4.93;;
20669;SDS011;10494;50.868;4.180;2023-04-25T00:36:43;16.55;;;5.22;;
20669;SDS011;10494;50.868;4.180;2023-04-25T00:39:09;22.90;;;6.30;;
20669;SDS011;10494;50.868;4.180;2023-04-25T00:41:36;26.40;;;6.80;;
20669;SDS011;10494;50.868;4.180;2023-04-25T00:44:03;16.93;;;5.43;;
20669;SDS011;10494;50.868;4.180;2023-04-25T00:46:31;22.33;;;5.73;;
20669;SDS011;10494;50.868;4.180;2023-04-25T00:48:57;18.13;;;5.23;;
20669;SDS011;10494;50.868;4.180;2023-04-25T00:51:23;15.23;;;4.73;;
20669;SDS011;10494;50.868;4.180;2023-04-25T00:53:50;25.20;;;5.23;;
20669;SDS011;10494;50.868;4.180;2023-04-25T00:56:16;16.60;;;4.80;;
20669;SDS011;10494;50.868;4.180;2023-04-25T00:58:42;17.60;;;5.00;;
20669;SDS011;10494;50.868;4.180;2023-04-25T01:01:08;21.57;;;5.17;;
20669;SDS011;10494;50.868;4.180;2023-04-25T01:03:35;17.93;;;5.57;;
20669;SDS011;10494;50.868;4.180;2023-04-25T01:06:06;21.63;;;5.63;;
20669;SDS011;10494;50.868;4.180;2023-04-25T01:08:34;18.30;;;5.90;;
20669;SDS011;10494;50.868;4.180;2023-04-25T01:11:00;19.43;;;5.97;;
20669;SDS011;10494;50.868;4.180;2023-04-25T01:13:26;21.33;;;5.33;;
20669;SDS011;10494;50.868;4.180;2023-04-25T01:15:52;18.40;;;5.00;;
20669;SDS011;10494;50.868;4.180;2023-04-25T01:18:18;21.27;;;5.47;;
20669;SDS011;10494;50.868;4.180;2023-04-25T01:20:45;22.90;;;5.87;;
20669;SDS011;10494;50.868;4.180;2023-04-25T01:23:12;19.53;;;6.40;;
20669;SDS011;10494;50.868;4.180;2023-04-25T01:25:38;20.83;;;6.03;;
20669;SDS011;10494;50.868;4.180;2023-04-25T01:28:05;19.20;;;5.80;;
20669;SDS011;10494;50.868;4.180;2023-04-25T01:30:31;21.88;;;5.40;;
20669;SDS011;10494;50.868;4.180;2023-04-25T01:32:57;23.10;;;6.03;;
20669;SDS011;10494;50.868;4.180;2023-04-25T01:35:23;27.40;;;6.83;;
20669;SDS011;10494;50.868;4.180;2023-04-25T01:37:50;20.10;;;6.07;;
20669;SDS011;10494;50.868;4.180;2023-04-25T01:40:16;17.57;;;5.37;;
20669;SDS011;10494;50.868;4.180;2023-04-25T01:42:44;23.37;;;6.87;;
20669;SDS011;10494;50.868;4.180;2023-04-25T01:45:10;15.30;;;5.20;;
20669;SDS011;10494;50.868;4.180;2023-04-25T01:47:36;21.73;;;5.93;;
20669;SDS011;10494;50.868;4.180;2023-04-25T01:50:03;19.77;;;5.73;;
20669;SDS011;10494;50.868;4.180;2023-04-25T01:52:29;27.43;;;5.90;;
20669;SDS011;10494;50.868;4.180;2023-04-25T01:54:55;19.07;;;6.40;;
20669;SDS011;10494;50.868;4.180;2023-04-25T01:57:22;22.40;;;5.60;;
20669;SDS011;10494;50.868;4.180;2023-04-25T01:59:48;26.43;;;5.80;;
20669;SDS011;10494;50.868;4.180;2023-04-25T02:02:15;21.40;;;5.33;;
20669;SDS011;10494;50.868;4.180;2023-04-25T02:04:40;16.93;;;6.00;;
20669;SDS011;10494;50.868;4.180;2023-04-25T02:07:06;20.33;;;5.60;;
20669;SDS011;10494;50.868;4.180;2023-04-25T02:09:31;23.17;;;5.40;;
20669;SDS011;10494;50.868;4.180;2023-04-25T02:11:57;25.23;;;5.50;;
20669;SDS011;10494;50.868;4.180;2023-04-25T02:14:23;17.77;;;6.77;;
20669;SDS011;10494;50.868;4.180;2023-04-25T02:16:49;21.67;;;5.80;;
20669;SDS011;10494;50.868;4.180;2023-04-25T02:19:16;20.57;;;5.63;;
20669;SDS011;10494;50.868;4.180;2023-04-25T02:21:42;31.60;;;6.13;;
20669;SDS011;10494;50.868;4.180;2023-04-25T02:24:07;22.37;;;5.93;;
20669;SDS011;10494;50.868;4.180;2023-04-25T02:26:33;23.13;;;5.37;;
20669;SDS011;10494;50.868;4.180;2023-04-25T02:28:59;22.27;;;5.83;;
20669;SDS011;10494;50.868;4.180;2023-04-25T02:31:26;20.57;;;4.93;;
20669;SDS011;10494;50.868;4.180;2023-04-25T02:33:51;24.10;;;5.07;;
20669;SDS011;10494;50.868;4.180;2023-04-25T02:36:17;21.23;;;5.70;;
20669;SDS011;10494;50.868;4.180;2023-04-25T02:38:43;23.23;;;5.03;;
20669;SDS011;10494;50.868;4.180;2023-04-25T02:41:08;23.40;;;6.53;;
20669;SDS011;10494;50.868;4.180;2023-04-25T02:43:34;19.17;;;5.40;;
20669;SDS011;10494;50.868;4.180;2023-04-25T02:46:00;23.13;;;5.83;;
20669;SDS011;10494;50.868;4.180;2023-04-25T02:48:25;19.27;;;5.47;;
20669;SDS011;10494;50.868;4.180;2023-04-25T02:50:51;27.43;;;5.73;;
20669;SDS011;10494;50.868;4.180;2023-04-25T02:53:16;22.20;;;5.70;;
20669;SDS011;10494;50.868;4.180;2023-04-25T02:55:42;26.73;;;6.03;;
20669;SDS011;10494;50.868;4.180;2023-04-25T02:58:08;22.93;;;5.50;;
20669;SDS011;10494;50.868;4.180;2023-04-25T03:00:33;21.20;;;5.47;;
20669;SDS011;10494;50.868;4.180;2023-04-25T03:02:59;31.07;;;4.97;;
20669;SDS011;10494;50.868;4.180;2023-04-25T03:05:25;20.10;;;5.93;;
20669;SDS011;10494;50.868;4.180;2023-04-25T03:07:50;24.33;;;5.70;;
20669;SDS011;10494;50.868;4.180;2023-04-25T03:10:16;27.83;;;5.87;;
20669;SDS011;10494;50.868;4.180;2023-04-25T03:12:41;15.77;;;4.47;;
20669;SDS011;10494;50.868;4.180;2023-04-25T03:15:07;23.60;;;5.30;;
20669;SDS011;10494;50.868;4.180;2023-04-25T03:17:33;16.63;;;4.47;;
20669;SDS011;10494;50.868;4.180;2023-04-25T03:19:59;22.07;;;4.80;;
20669;SDS011;10494;50.868;4.180;2023-04-25T03:22:24;23.90;;;5.50;;
20669;SDS011;10494;50.868;4.180;2023-04-25T03:24:50;21.47;;;5.87;;
20669;SDS011;10494;50.868;4.180;2023-04-25T03:27:16;16.87;;;5.70;;
20669;SDS011;10494;50.868;4.180;2023-04-25T03:29:42;17.00;;;4.77;;
20669;SDS011;10494;50.868;4.180;2023-04-25T03:32:08;21.40;;;5.37;;
20669;SDS011;10494;50.868;4.180;2023-04-25T03:34:34;23.47;;;5.43;;
20669;SDS011;10494;50.868;4.180;2023-04-25T03:37:00;23.03;;;4.57;;
20669;SDS011;10494;50.868;4.180;2023-04-25T03:39:26;22.47;;;4.43;;
20669;SDS011;10494;50.868;4.180;2023-04-25T03:41:51;17.37;;;5.23;;
20669;SDS011;10494;50.868;4.180;2023-04-25T03:44:17;20.13;;;5.00;;
20669;SDS011;10494;50.868;4.180;2023-04-25T03:46:43;26.97;;;5.27;;
20669;SDS011;10494;50.868;4.180;2023-04-25T03:49:08;27.73;;;5.13;;
20669;SDS011;10494;50.868;4.180;2023-04-25T03:51:34;25.40;;;5.60;;
20669;SDS011;10494;50.868;4.180;2023-04-25T03:54:00;26.27;;;6.30;;
20669;SDS011;10494;50.868;4.180;2023-04-25T03:56:26;19.70;;;4.53;;
20669;SDS011;10494;50.868;4.180;2023-04-25T03:58:51;21.57;;;5.23;;
20669;SDS011;10494;50.868;4.180;2023-04-25T04:01:17;22.17;;;5.20;;
20669;SDS011;10494;50.868;4.180;2023-04-25T04:03:42;22.23;;;5.27;;
20669;SDS011;10494;50.868;4.180;2023-04-25T04:06:08;20.43;;;5.00;;
20669;SDS011;10494;50.868;4.180;2023-04-25T04:08:34;23.83;;;5.57;;
20669;SDS011;10494;50.868;4.180;2023-04-25T04:11:00;30.77;;;6.27;;
20669;SDS011;10494;50.868;4.180;2023-04-25T04:13:26;20.80;;;5.40;;
20669;SDS011;10494;50.868;4.180;2023-04-25T04:15:52;24.93;;;5.33;;
20669;SDS011;10494;50.868;4.180;2023-04-25T04:18:18;29.00;;;6.03;;
20669;SDS011;10494;50.868;4.180;2023-04-25T04:20:44;17.43;;;4.80;;
20669;SDS011;10494;50.868;4.180;2023-04-25T04:23:10;19.87;;;5.37;;
20669;SDS011;10494;50.868;4.180;2023-04-25T04:25:35;40.07;;;6.73;;
20669;SDS011;10494;50.868;4.180;2023-04-25T04:28:02;26.03;;;5.53;;
20669;SDS011;10494;50.868;4.180;2023-04-25T04:30:27;18.80;;;4.80;;
20669;SDS011;10494;50.868;4.180;2023-04-25T04:32:56;29.30;;;6.90;;
20669;SDS011;10494;50.868;4.180;2023-04-25T04:35:22;23.70;;;5.57;;
20669;SDS011;10494;50.868;4.180;2023-04-25T04:37:48;34.80;;;7.90;;
20669;SDS011;10494;50.868;4.180;2023-04-25T04:40:14;20.83;;;5.13;;
20669;SDS011;10494;50.868;4.180;2023-04-25T04:42:41;20.53;;;5.10;;
20669;SDS011;10494;50.868;4.180;2023-04-25T04:45:07;20.60;;;6.27;;
20669;SDS011;10494;50.868;4.180;2023-04-25T04:47:34;18.57;;;5.10;;
20669;SDS011;10494;50.868;4.180;2023-04-25T04:50:02;18.33;;;4.70;;
20669;SDS011;10494;50.868;4.180;2023-04-25T04:52:29;19.43;;;4.97;;
20669;SDS011;10494;50.868;4.180;2023-04-25T04:54:54;23.37;;;5.03;;
20669;SDS011;10494;50.868;4.180;2023-04-25T04:57:20;23.07;;;4.37;;
20669;SDS011;10494;50.868;4.180;2023-04-25T04:59:46;22.37;;;4.47;;
20669;SDS011;10494;50.868;4.180;2023-04-25T05:02:11;24.07;;;5.37;;
20669;SDS011;10494;50.868;4.180;2023-04-25T05:04:37;16.43;;;4.37;;
20669;SDS011;10494;50.868;4.180;2023-04-25T05:07:03;14.90;;;4.77;;
20669;SDS011;10494;50.868;4.180;2023-04-25T05:09:28;16.07;;;3.97;;
20669;SDS011;10494;50.868;4.180;2023-04-25T05:11:54;22.73;;;4.23;;
20669;SDS011;10494;50.868;4.180;2023-04-25T05:14:20;15.17;;;4.30;;
20669;SDS011;10494;50.868;4.180;2023-04-25T05:16:46;17.03;;;5.40;;
20669;SDS011;10494;50.868;4.180;2023-04-25T05:19:12;16.33;;;4.13;;
20669;SDS011;10494;50.868;4.180;2023-04-25T05:21:38;10.73;;;4.23;;
20669;SDS011;10494;50.868;4.180;2023-04-25T05:24:03;18.73;;;4.83;;
20669;SDS011;10494;50.868;4.180;2023-04-25T05:26:29;12.90;;;3.60;;
20669;SDS011;10494;50.868;4.180;2023-04-25T05:28:59;14.70;;;3.40;;
20669;SDS011;10494;50.868;4.180;2023-04-25T05:31:25;16.00;;;4.33;;
20669;SDS011;10494;50.868;4.180;2023-04-25T05:33:51;15.67;;;4.03;;
20669;SDS011;10494;50.868;4.180;2023-04-25T05:36:18;12.30;;;4.13;;
20669;SDS011;10494;50.868;4.180;2023-04-25T05:38:44;15.57;;;4.93;;
20669;SDS011;10494;50.868;4.180;2023-04-25T05:41:10;17.83;;;4.00;;
20669;SDS011;10494;50.868;4.180;2023-04-25T05:43:36;17.53;;;3.70;;
20669;SDS011;10494;50.868;4.180;2023-04-25T05:46:01;16.20;;;3.73;;
20669;SDS011;10494;50.868;4.180;2023-04-25T05:48:27;14.30;;;4.40;;
20669;SDS011;10494;50.868;4.180;2023-04-25T05:50:53;12.20;;;3.87;;
20669;SDS011;10494;50.868;4.180;2023-04-25T05:53:19;18.17;;;4.27;;
20669;SDS011;10494;50.868;4.180;2023-04-25T05:55:45;20.13;;;4.10;;
20669;SDS011;10494;50.868;4.180;2023-04-25T05:58:11;24.73;;;5.20;;
20669;SDS011;10494;50.868;4.180;2023-04-25T06:00:37;15.77;;;4.50;;
20669;SDS011;10494;50.868;4.180;2023-04-25T06:03:03;21.47;;;4.10;;
20669;SDS011;10494;50.868;4.180;2023-04-25T06:05:29;15.30;;;4.07;;
20669;SDS011;10494;50.868;4.180;2023-04-25T06:07:54;24.17;;;5.20;;
20669;SDS011;10494;50.868;4.180;2023-04-25T06:10:20;13.03;;;4.80;;
20669;SDS011;10494;50.868;4.180;2023-04-25T06:12:47;11.23;;;3.83;;
20669;SDS011;10494;50.868;4.180;2023-04-25T06:15:13;15.90;;;3.43;;
20669;SDS011;10494;50.868;4.180;2023-04-25T06:17:38;17.20;;;4.27;;
20669;SDS011;10494;50.868;4.180;2023-04-25T06:20:04;13.30;;;3.93;;
20669;SDS011;10494;50.868;4.180;2023-04-25T06:22:31;17.07;;;4.87;;
20669;SDS011;10494;50.868;4.180;2023-04-25T06:24:56;17.83;;;4.27;;
20669;SDS011;10494;50.868;4.180;2023-04-25T06:27:23;14.83;;;3.90;;
20669;SDS011;10494;50.868;4.180;2023-04-25T06:29:50;18.83;;;3.83;;
20669;SDS011;10494;50.868;4.180;2023-04-25T06:32:15;19.27;;;4.87;;
20669;SDS011;10494;50.868;4.180;2023-04-25T06:34:42;15.33;;;3.50;;
20669;SDS011;10494;50.868;4.180;2023-04-25T06:37:08;15.07;;;3.87;;
20669;SDS011;10494;50.868;4.180;2023-04-25T06:39:34;12.80;;;3.83;;
20669;SDS011;10494;50.868;4.180;2023-04-25T06:42:00;19.50;;;4.50;;
20669;SDS011;10494;50.868;4.180;2023-04-25T06:44:25;12.30;;;3.77;;
20669;SDS011;10494;50.868;4.180;2023-04-25T06:46:53;13.57;;;3.53;;
20669;SDS011;10494;50.868;4.180;2023-04-25T06:49:19;16.10;;;3.87;;
20669;SDS011;10494;50.868;4.180;2023-04-25T06:51:44;11.57;;;3.57;;
20669;SDS011;10494;50.868;4.180;2023-04-25T06:54:10;15.63;;;3.08;;
20669;SDS011;10494;50.868;4.180;2023-04-25T06:56:36;15.77;;;4.20;;
20669;SDS011;10494;50.868;4.180;2023-04-25T06:59:01;16.60;;;3.63;;
20669;SDS011;10494;50.868;4.180;2023-04-25T07:01:27;17.17;;;3.53;;
20669;SDS011;10494;50.868;4.180;2023-04-25T07:03:53;14.87;;;3.27;;
20669;SDS011;10494;50.868;4.180;2023-04-25T07:06:18;17.63;;;4.35;;
20669;SDS011;10494;50.868;4.180;2023-04-25T07:08:44;16.07;;;3.80;;
20669;SDS011;10494;50.868;4.180;2023-04-25T07:11:10;15.70;;;4.03;;
20669;SDS011;10494;50.868;4.180;2023-04-25T07:13:35;16.73;;;3.30;;
20669;SDS011;10494;50.868;4.180;2023-04-25T07:16:01;12.73;;;3.50;;
20669;SDS011;10494;50.868;4.180;2023-04-25T07:18:28;19.73;;;4.07;;
20669;SDS011;10494;50.868;4.180;2023-04-25T07:20:53;11.93;;;4.23;;
20669;SDS011;10494;50.868;4.180;2023-04-25T07:23:19;13.43;;;3.60;;
20669;SDS011;10494;50.868;4.180;2023-04-25T07:25:45;13.47;;;3.00;;
20669;SDS011;10494;50.868;4.180;2023-04-25T07:28:11;7.70;;;2.93;;
20669;SDS011;10494;50.868;4.180;2023-04-25T07:30:37;15.07;;;3.13;;
20669;SDS011;10494;50.868;4.180;2023-04-25T07:33:02;12.57;;;3.13;;
20669;SDS011;10494;50.868;4.180;2023-04-25T07:35:28;16.07;;;3.83;;
20669;SDS011;10494;50.868;4.180;2023-04-25T07:37:54;11.60;;;2.83;;
20669;SDS011;10494;50.868;4.180;2023-04-25T07:40:20;10.73;;;2.60;;
20669;SDS011;10494;50.868;4.180;2023-04-25T07:42:46;14.67;;;2.90;;
20669;SDS011;10494;50.868;4.180;2023-04-25T07:45:12;9.87;;;3.33;;
20669;SDS011;10494;50.868;4.180;2023-04-25T07:47:37;12.67;;;2.50;;
20669;SDS011;10494;50.868;4.180;2023-04-25T07:50:03;11.20;;;2.63;;
20669;SDS011;10494;50.868;4.180;2023-04-25T07:52:29;17.40;;;3.10;;
20669;SDS011;10494;50.868;4.180;2023-04-25T07:54:55;16.67;;;3.13;;
20669;SDS011;10494;50.868;4.180;2023-04-25T07:57:22;13.23;;;3.67;;
20669;SDS011;10494;50.868;4.180;2023-04-25T07:59:49;11.03;;;2.40;;
20669;SDS011;10494;50.868;4.180;2023-04-25T08:02:14;10.83;;;3.27;;
20669;SDS011;10494;50.868;4.180;2023-04-25T08:04:40;17.97;;;4.70;;
20669;SDS011;10494;50.868;4.180;2023-04-25T08:07:06;12.07;;;3.30;;
20669;SDS011;10494;50.868;4.180;2023-04-25T08:09:31;9.07;;;3.00;;
20669;SDS011;10494;50.868;4.180;2023-04-25T08:12:01;10.07;;;3.10;;
20669;SDS011;10494;50.868;4.180;2023-04-25T08:14:28;10.57;;;3.15;;
20669;SDS011;10494;50.868;4.180;2023-04-25T08:16:56;9.15;;;2.67;;
20669;SDS011;10494;50.868;4.180;2023-04-25T08:19:22;8.07;;;2.75;;
20669;SDS011;10494;50.868;4.180;2023-04-25T08:21:47;12.67;;;3.23;;
20669;SDS011;10494;50.868;4.180;2023-04-25T08:24:13;8.45;;;2.47;;
20669;SDS011;10494;50.868;4.180;2023-04-25T08:26:38;12.60;;;2.83;;
20669;SDS011;10494;50.868;4.180;2023-04-25T08:29:05;7.30;;;2.15;;
20669;SDS011;10494;50.868;4.180;2023-04-25T08:31:31;13.82;;;2.92;;
20669;SDS011;10494;50.868;4.180;2023-04-25T08:33:57;10.93;;;2.35;;
20669;SDS011;10494;50.868;4.180;2023-04-25T08:36:22;7.53;;;2.20;;
20669;SDS011;10494;50.868;4.180;2023-04-25T08:38:49;11.90;;;2.67;;
20669;SDS011;10494;50.868;4.180;2023-04-25T08:41:14;10.98;;;2.05;;
20669;SDS011;10494;50.868;4.180;2023-04-25T08:43:41;10.43;;;2.88;;
20669;SDS011;10494;50.868;4.180;2023-04-25T08:46:08;8.60;;;2.17;;
20669;SDS011;10494;50.868;4.180;2023-04-25T08:48:36;6.45;;;2.10;;
20669;SDS011;10494;50.868;4.180;2023-04-25T08:51:02;10.18;;;2.30;;
20669;SDS011;10494;50.868;4.180;2023-04-25T08:53:32;9.18;;;2.35;;
20669;SDS011;10494;50.868;4.180;2023-04-25T08:55:59;9.77;;;2.85;;
20669;SDS011;10494;50.868;4.180;2023-04-25T08:58:28;10.18;;;2.40;;
20669;SDS011;10494;50.868;4.180;2023-04-25T09:00:55;8.18;;;2.63;;
20669;SDS011;10494;50.868;4.180;2023-04-25T09:03:21;9.18;;;2.35;;
20669;SDS011;10494;50.868;4.180;2023-04-25T09:05:46;10.48;;;2.20;;
20669;SDS011;10494;50.868;4.180;2023-04-25T09:08:12;9.60;;;2.70;;
20669;SDS011;10494;50.868;4.180;2023-04-25T09:10:38;13.00;;;2.30;;
20669;SDS011;10494;50.868;4.180;2023-04-25T09:13:06;8.27;;;2.25;;
20669;SDS011;10494;50.868;4.180;2023-04-25T09:15:48;14.20;;;3.25;;
20669;SDS011;10494;50.868;4.180;2023-04-25T09:18:21;12.07;;;2.35;;
20669;SDS011;10494;50.868;4.180;2023-04-25T09:20:47;7.68;;;2.35;;
20669;SDS011;10494;50.868;4.180;2023-04-25T09:23:14;7.95;;;2.45;;
20669;SDS011;10494;50.868;4.180;2023-04-25T09:25:40;8.73;;;2.43;;
20669;SDS011;10494;50.868;4.180;2023-04-25T09:28:07;8.83;;;2.83;;
20669;SDS011;10494;50.868;4.180;2023-04-25T09:30:34;7.30;;;1.80;;
20669;SDS011;10494;50.868;4.180;2023-04-25T09:33:04;5.53;;;2.00;;
20669;SDS011;10494;50.868;4.180;2023-04-25T09:35:35;15.82;;;2.70;;
20669;SDS011;10494;50.868;4.180;2023-04-25T09:38:06;6.38;;;2.30;;
20669;SDS011;10494;50.868;4.180;2023-04-25T09:40:44;7.05;;;2.08;;
20669;SDS011;10494;50.868;4.180;2023-04-25T09:43:23;6.93;;;1.83;;
20669;SDS011;10494;50.868;4.180;2023-04-25T09:45:50;13.80;;;2.25;;
20669;SDS011;10494;50.868;4.180;2023-04-25T09:48:18;8.00;;;2.20;;
20669;SDS011;10494;50.868;4.180;2023-04-25T09:50:45;11.10;;;2.50;;
20669;SDS011;10494;50.868;4.180;2023-04-25T09:53:35;7.75;;;1.95;;
20669;SDS011;10494;50.868;4.180;2023-04-25T09:56:03;6.18;;;1.80;;
20669;SDS011;10494;50.868;4.180;2023-04-25T09:58:30;6.75;;;2.65;;
20669;SDS011;10494;50.868;4.180;2023-04-25T10:00:59;5.82;;;1.60;;
20669;SDS011;10494;50.868;4.180;2023-04-25T10:03:28;10.73;;;1.63;;
20669;SDS011;10494;50.868;4.180;2023-04-25T10:05:56;8.80;;;1.27;;
20669;SDS011;10494;50.868;4.180;2023-04-25T10:08:24;5.55;;;1.40;;
20669;SDS011;10494;50.868;4.180;2023-04-25T10:10:55;4.28;;;1.42;;
20669;SDS011;10494;50.868;4.180;2023-04-25T10:13:23;5.45;;;1.40;;
20669;SDS011;10494;50.868;4.180;2023-04-25T10:15:49;8.02;;;1.63;;
20669;SDS011;10494;50.868;4.180;2023-04-25T10:18:18;7.70;;;1.70;;
20669;SDS011;10494;50.868;4.180;2023-04-25T10:20:44;4.70;;;1.67;;
20669;SDS011;10494;50.868;4.180;2023-04-25T10:23:13;6.68;;;1.80;;
20669;SDS011;10494;50.868;4.180;2023-04-25T10:25:40;6.07;;;2.22;;
20669;SDS011;10494;50.868;4.180;2023-04-25T10:28:07;6.78;;;1.42;;
20669;SDS011;10494;50.868;4.180;2023-04-25T10:30:32;6.13;;;1.40;;
20669;SDS011;10494;50.868;4.180;2023-04-25T10:32:58;6.80;;;1.65;;
20669;SDS011;10494;50.868;4.180;2023-04-25T10:35:28;6.95;;;1.65;;
20669;SDS011;10494;50.868;4.180;2023-04-25T10:40:37;10.37;;;2.30;;
20669;SDS011;10494;50.868;4.180;2023-04-25T10:45:57;3.57;;;1.53;;
20669;SDS011;10494;50.868;4.180;2023-04-25T10:48:34;10.02;;;1.98;;
20669;SDS011;10494;50.868;4.180;2023-04-25T10:51:09;9.93;;;2.97;;
20669;SDS011;10494;50.868;4.180;2023-04-25T10:53:46;6.77;;;2.20;;
20669;SDS011;10494;50.868;4.180;2023-04-25T10:56:19;9.03;;;1.70;;
20669;SDS011;10494;50.868;4.180;2023-04-25T10:58:48;5.53;;;1.63;;
20669;SDS011;10494;50.868;4.180;2023-04-25T11:01:14;9.13;;;2.00;;
20669;SDS011;10494;50.868;4.180;2023-04-25T11:03:44;7.77;;;1.77;;
20669;SDS011;10494;50.868;4.180;2023-04-25T11:09:08;5.37;;;1.90;;
20669;SDS011;10494;50.868;4.180;2023-04-25T11:11:38;9.83;;;1.80;;
20669;SDS011;10494;50.868;4.180;2023-04-25T11:14:03;6.63;;;2.00;;
20669;SDS011;10494;50.868;4.180;2023-04-25T11:16:29;4.23;;;1.50;;
20669;SDS011;10494;50.868;4.180;2023-04-25T11:18:57;6.27;;;1.60;;
20669;SDS011;10494;50.868;4.180;2023-04-25T11:21:23;7.00;;;2.00;;
20669;SDS011;10494;50.868;4.180;2023-04-25T11:23:51;5.63;;;1.20;;
20669;SDS011;10494;50.868;4.180;2023-04-25T11:26:18;6.20;;;1.60;;
20669;SDS011;10494;50.868;4.180;2023-04-25T11:28:45;5.10;;;1.63;;
20669;SDS011;10494;50.868;4.180;2023-04-25T11:31:11;4.60;;;1.20;;
20669;SDS011;10494;50.868;4.180;2023-04-25T11:33:37;7.13;;;1.87;;
20669;SDS011;10494;50.868;4.180;2023-04-25T11:36:05;4.77;;;1.63;;
20669;SDS011;10494;50.868;4.180;2023-04-25T11:38:31;3.53;;;1.30;;
20669;SDS011;10494;50.868;4.180;2023-04-25T11:40:57;6.18;;;1.70;;
20669;SDS011;10494;50.868;4.180;2023-04-25T11:43:23;4.73;;;1.50;;
20669;SDS011;10494;50.868;4.180;2023-04-25T11:45:50;6.10;;;1.80;;
20669;SDS011;10494;50.868;4.180;2023-04-25T11:48:16;6.10;;;1.70;;
20669;SDS011;10494;50.868;4.180;2023-04-25T11:50:43;8.60;;;2.00;;
20669;SDS011;10494;50.868;4.180;2023-04-25T11:53:08;8.63;;;2.10;;
20669;SDS011;10494;50.868;4.180;2023-04-25T11:55:35;5.95;;;1.85;;
20669;SDS011;10494;50.868;4.180;2023-04-25T11:58:01;3.88;;;1.48;;
20669;SDS011;10494;50.868;4.180;2023-04-25T12:00:28;3.85;;;1.10;;
20669;SDS011;10494;50.868;4.180;2023-04-25T12:02:54;8.32;;;1.52;;
20669;SDS011;10494;50.868;4.180;2023-04-25T12:05:23;7.93;;;1.60;;
20669;SDS011;10494;50.868;4.180;2023-04-25T12:07:53;2.03;;;1.38;;
20669;SDS011;10494;50.868;4.180;2023-04-25T12:10:19;4.75;;;1.23;;
20669;SDS011;10494;50.868;4.180;2023-04-25T12:12:46;5.57;;;1.20;;
20669;SDS011;10494;50.868;4.180;2023-04-25T12:15:13;5.43;;;1.20;;
20669;SDS011;10494;50.868;4.180;2023-04-25T12:17:44;2.85;;;1.52;;
20669;SDS011;10494;50.868;4.180;2023-04-25T12:20:21;5.18;;;1.30;;
20669;SDS011;10494;50.868;4.180;2023-04-25T12:22:51;3.20;;;1.40;;
20669;SDS011;10494;50.868;4.180;2023-04-25T12:28:22;7.47;;;1.58;;
20669;SDS011;10494;50.868;4.180;2023-04-25T12:33:35;5.95;;;1.38;;
20669;SDS011;10494;50.868;4.180;2023-04-25T12:36:03;4.95;;;1.60;;
20669;SDS011;10494;50.868;4.180;2023-04-25T12:38:37;6.38;;;1.60;;
20669;SDS011;10494;50.868;4.180;2023-04-25T12:41:04;3.53;;;1.40;;
20669;SDS011;10494;50.868;4.180;2023-04-25T12:43:30;7.15;;;1.80;;
20669;SDS011;10494;50.868;4.180;2023-04-25T12:45:56;4.40;;;1.65;;
20669;SDS011;10494;50.868;4.180;2023-04-25T12:48:22;5.90;;;1.45;;
20669;SDS011;10494;50.868;4.180;2023-04-25T12:50:48;5.13;;;1.60;;
20669;SDS011;10494;50.868;4.180;2023-04-25T12:53:15;5.82;;;1.80;;
20669;SDS011;10494;50.868;4.180;2023-04-25T12:55:41;4.40;;;1.48;;
20669;SDS011;10494;50.868;4.180;2023-04-25T12:58:07;4.13;;;1.30;;
20669;SDS011;10494;50.868;4.180;2023-04-25T13:00:33;6.05;;;1.63;;
20669;SDS011;10494;50.868;4.180;2023-04-25T13:02:59;6.28;;;1.60;;
20669;SDS011;10494;50.868;4.180;2023-04-25T13:05:25;3.17;;;1.42;;
20669;SDS011;10494;50.868;4.180;2023-04-25T13:07:51;4.38;;;1.40;;
20669;SDS011;10494;50.868;4.180;2023-04-25T13:10:17;4.50;;;1.88;;
20669;SDS011;10494;50.868;4.180;2023-04-25T13:12:43;5.40;;;1.80;;
20669;SDS011;10494;50.868;4.180;2023-04-25T13:15:09;7.93;;;2.45;;
20669;SDS011;10494;50.868;4.180;2023-04-25T13:17:36;7.10;;;2.03;;
20669;SDS011;10494;50.868;4.180;2023-04-25T13:20:03;6.47;;;2.75;;
20669;SDS011;10494;50.868;4.180;2023-04-25T13:22:33;6.47;;;1.38;;
20669;SDS011;10494;50.868;4.180;2023-04-25T13:25:01;4.97;;;1.90;;
20669;SDS011;10494;50.868;4.180;2023-04-25T13:27:27;5.57;;;2.38;;
20669;SDS011;10494;50.868;4.180;2023-04-25T13:29:53;8.48;;;2.38;;
20669;SDS011;10494;50.868;4.180;2023-04-25T13:32:19;13.48;;;5.10;;
20669;SDS011;10494;50.868;4.180;2023-04-25T13:34:45;7.07;;;2.67;;
20669;SDS011;10494;50.868;4.180;2023-04-25T13:37:10;8.27;;;1.90;;
20669;SDS011;10494;50.868;4.180;2023-04-25T13:39:36;6.70;;;1.52;;
20669;SDS011;10494;50.868;4.180;2023-04-25T13:42:02;3.75;;;1.10;;
20669;SDS011;10494;50.868;4.180;2023-04-25T13:44:28;4.90;;;1.50;;
20669;SDS011;10494;50.868;4.180;2023-04-25T13:46:53;6.45;;;2.00;;
20669;SDS011;10494;50.868;4.180;2023-04-25T13:49:19;7.47;;;1.60;;
20669;SDS011;10494;50.868;4.180;2023-04-25T13:51:45;6.45;;;1.38;;
20669;SDS011;10494;50.868;4.180;2023-04-25T13:54:10;10.15;;;1.52;;
20669;SDS011;10494;50.868;4.180;2023-04-25T13:56:36;7.00;;;1.67;;
20669;SDS011;10494;50.868;4.180;2023-04-25T13:59:02;7.18;;;1.70;;
20669;SDS011;10494;50.868;4.180;2023-04-25T14:01:27;5.45;;;1.83;;
20669;SDS011;10494;50.868;4.180;2023-04-25T14:03:55;5.47;;;1.67;;
20669;SDS011;10494;50.868;4.180;2023-04-25T14:06:21;6.18;;;1.52;;
20669;SDS011;10494;50.868;4.180;2023-04-25T14:08:49;6.50;;;1.75;;
20669;SDS011;10494;50.868;4.180;2023-04-25T14:11:15;10.18;;;1.95;;
20669;SDS011;10494;50.868;4.180;2023-04-25T14:13:43;4.35;;;1.80;;
20669;SDS011;10494;50.868;4.180;2023-04-25T14:16:09;8.32;;;2.30;;
20669;SDS011;10494;50.868;4.180;2023-04-25T14:18:35;9.52;;;2.17;;
20669;SDS011;10494;50.868;4.180;2023-04-25T14:21:00;5.50;;;1.55;;
20669;SDS011;10494;50.868;4.180;2023-04-25T14:23:26;8.57;;;1.52;;
20669;SDS011;10494;50.868;4.180;2023-04-25T14:25:51;5.32;;;1.77;;
20669;SDS011;10494;50.868;4.180;2023-04-25T14:28:17;7.32;;;2.60;;
20669;SDS011;10494;50.868;4.180;2023-04-25T14:30:43;9.35;;;3.00;;
20669;SDS011;10494;50.868;4.180;2023-04-25T14:33:08;4.93;;;1.52;;
20669;SDS011;10494;50.868;4.180;2023-04-25T14:35:34;7.65;;;2.08;;
20669;SDS011;10494;50.868;4.180;2023-04-25T14:38:00;7.60;;;1.80;;
20669;SDS011;10494;50.868;4.180;2023-04-25T14:40:26;7.50;;;1.70;;
20669;SDS011;10494;50.868;4.180;2023-04-25T14:42:51;4.65;;;1.70;;
20669;SDS011;10494;50.868;4.180;2023-04-25T14:45:17;8.05;;;1.60;;
20669;SDS011;10494;50.868;4.180;2023-04-25T14:47:44;5.85;;;1.80;;
20669;SDS011;10494;50.868;4.180;2023-04-25T14:50:10;9.60;;;2.00;;